createdAt,value
2023-05-25T00:27:41.920Z,81.89
2023-05-25T00:30:08.480Z,81.58
2023-05-25T00:32:35.974Z,81.91
2023-05-25T00:35:02.347Z,82.55
2023-05-25T00:37:28.684Z,82.22
2023-05-25T00:39:55.479Z,81.70
2023-05-25T00:42:22.948Z,83.02
2023-05-25T00:44:49.240Z,82.76
2023-05-25T00:47:15.817Z,83.25
2023-05-25T00:49:42.107Z,82.58
2023-05-25T00:52:10.737Z,82.34
2023-05-25T00:54:37.279Z,82.55
2023-05-25T00:57:05.795Z,82.55
2023-05-25T00:59:37.742Z,81.37
2023-05-25T01:02:06.860Z,81.58
2023-05-25T01:04:35.354Z,81.82
2023-05-25T01:07:03.836Z,80.63
2023-05-25T01:09:32.043Z,79.99
2023-05-25T01:11:59.538Z,79.93
2023-05-25T01:14:26.833Z,80.12
2023-05-25T01:16:53.482Z,79.80
2023-05-25T01:19:20.125Z,79.85
2023-05-25T01:21:55.574Z,79.59
2023-05-25T01:24:27.580Z,79.73
2023-05-25T01:26:56.424Z,79.96
2023-05-25T01:29:25.641Z,79.94
2023-05-25T01:31:53.029Z,80.12
2023-05-25T01:34:20.664Z,80.22
2023-05-25T01:36:47.063Z,80.34
2023-05-25T01:39:13.402Z,80.35
2023-05-25T01:41:39.704Z,80.31
2023-05-25T01:44:06.995Z,80.28
2023-05-25T01:46:37.243Z,80.37
2023-05-25T01:49:06.843Z,80.39
2023-05-25T01:51:38.828Z,80.65
2023-05-25T01:54:11.396Z,80.53
2023-05-25T01:56:38.594Z,80.54
2023-05-25T01:59:07.393Z,80.36
2023-05-25T02:01:34.006Z,80.31
2023-05-25T02:04:00.487Z,80.35
2023-05-25T02:06:26.932Z,80.37
2023-05-25T02:08:53.245Z,80.58
2023-05-25T02:11:19.608Z,81.52
2023-05-25T02:13:46.001Z,80.94
2023-05-25T02:16:12.432Z,81.05
2023-05-25T02:18:43.914Z,81.41
2023-05-25T02:21:10.216Z,81.02
2023-05-25T02:23:36.667Z,81.62
2023-05-25T02:26:05.827Z,82.23
2023-05-25T02:28:32.820Z,80.94
2023-05-25T02:30:59.189Z,80.72
2023-05-25T02:33:25.593Z,81.07
2023-05-25T02:35:51.978Z,82.59
2023-05-25T02:38:18.504Z,82.76
2023-05-25T02:40:45.055Z,82.42
2023-05-25T02:43:12.601Z,82.81
2023-05-25T02:45:38.964Z,81.81
2023-05-25T02:48:05.301Z,83.59
2023-05-25T02:50:32.527Z,84.26
2023-05-25T02:53:00.512Z,83.38
2023-05-25T02:55:27.107Z,84.45
2023-05-25T02:57:53.560Z,84.71
2023-05-25T03:00:35.941Z,83.39
2023-05-25T03:06:06.147Z,84.64
2023-05-25T03:08:32.560Z,84.91
2023-05-25T03:10:58.988Z,85.14
2023-05-25T03:13:25.790Z,84.47
2023-05-25T03:15:52.046Z,83.42
2023-05-25T03:18:18.719Z,84.05
2023-05-25T03:20:45.266Z,82.06
2023-05-25T03:23:12.004Z,81.78
2023-05-25T03:25:38.872Z,81.60
2023-05-25T03:28:05.381Z,82.18
2023-05-25T03:30:31.880Z,82.18
2023-05-25T03:32:58.548Z,82.21
2023-05-25T03:35:28.265Z,81.73
2023-05-25T03:37:54.564Z,82.24
2023-05-25T03:40:21.008Z,82.30
2023-05-25T03:42:47.451Z,82.38
2023-05-25T03:45:13.838Z,81.79
2023-05-25T03:47:40.624Z,82.20
2023-05-25T03:50:07.469Z,82.31
2023-05-25T03:52:33.857Z,81.94
2023-05-25T03:55:00.381Z,82.83
2023-05-25T03:57:27.392Z,82.54
2023-05-25T03:59:53.977Z,83.30
2023-05-25T04:02:20.432Z,81.65
2023-05-25T04:04:47.486Z,82.92
2023-05-25T04:07:13.929Z,83.05
2023-05-25T04:09:40.269Z,82.04
2023-05-25T04:12:06.765Z,81.68
2023-05-25T04:14:33.160Z,81.72
2023-05-25T04:16:59.463Z,81.92
2023-05-25T04:19:26.250Z,82.16
2023-05-25T04:21:52.569Z,81.98
2023-05-25T04:24:19.056Z,81.72
2023-05-25T04:26:45.514Z,81.60
2023-05-25T04:29:12.376Z,81.69
2023-05-25T04:32:04.142Z,81.54
2023-05-25T04:34:43.198Z,81.36
2023-05-25T04:37:15.422Z,81.90
2023-05-25T04:39:41.792Z,81.55
2023-05-25T04:42:08.047Z,81.12
2023-05-25T04:44:34.575Z,80.88
2023-05-25T04:47:02.014Z,81.34
2023-05-25T04:49:33.296Z,81.27
2023-05-25T04:51:59.608Z,81.28
2023-05-25T04:54:28.349Z,81.08
2023-05-25T04:56:57.817Z,81.02
2023-05-25T04:59:24.160Z,81.46
2023-05-25T05:01:50.513Z,81.11
2023-05-25T05:04:17.294Z,81.17
2023-05-25T05:06:44.533Z,80.87
2023-05-25T05:09:17.025Z,80.99
2023-05-25T05:11:43.727Z,81.19
2023-05-25T05:14:10.008Z,81.15
2023-05-25T05:16:36.406Z,81.19
2023-05-25T05:19:04.899Z,80.92
2023-05-25T05:21:31.294Z,81.26
2023-05-25T05:23:57.645Z,81.13
2023-05-25T05:26:24.046Z,81.40
2023-05-25T05:28:50.428Z,81.54
2023-05-25T05:31:17.056Z,81.08
2023-05-25T05:33:43.489Z,80.80
2023-05-25T05:36:09.810Z,81.24
2023-05-25T05:38:37.631Z,80.77
2023-05-25T05:41:05.621Z,80.78
2023-05-25T05:43:32.132Z,80.96
2023-05-25T05:45:58.571Z,80.94
2023-05-25T05:48:24.889Z,81.41
2023-05-25T05:50:51.151Z,81.41
2023-05-25T05:53:18.042Z,81.53
2023-05-25T05:55:44.645Z,81.51
2023-05-25T05:58:11.463Z,81.21
2023-05-25T06:00:37.919Z,81.58
2023-05-25T06:03:06.475Z,81.66
2023-05-25T06:05:35.532Z,81.70
2023-05-25T06:08:01.899Z,81.57
2023-05-25T06:10:28.186Z,81.63
2023-05-25T06:12:54.545Z,81.00
2023-05-25T06:15:21.315Z,81.02
2023-05-25T06:17:49.019Z,80.87
2023-05-25T06:20:15.712Z,80.75
2023-05-25T06:22:42.276Z,80.63
2023-05-25T06:25:09.598Z,80.62
2023-05-25T06:27:36.069Z,80.44
2023-05-25T06:30:02.831Z,80.34
2023-05-25T06:32:29.624Z,80.26
2023-05-25T06:34:56.035Z,80.27
2023-05-25T06:37:22.523Z,79.98
2023-05-25T06:39:48.924Z,79.72
2023-05-25T06:42:15.202Z,79.74
2023-05-25T06:44:50.238Z,79.75
2023-05-25T06:47:17.471Z,79.63
2023-05-25T06:49:43.749Z,79.38
2023-05-25T06:52:10.048Z,79.36
2023-05-25T06:54:36.365Z,79.47
2023-05-25T06:57:02.650Z,79.32
2023-05-25T06:59:28.942Z,79.34
2023-05-25T07:01:55.292Z,79.20
2023-05-25T07:04:21.655Z,78.93
2023-05-25T07:06:47.952Z,78.94
2023-05-25T07:09:14.273Z,79.03
2023-05-25T07:11:41.259Z,79.18
2023-05-25T07:14:07.867Z,79.09
2023-05-25T07:16:34.488Z,78.99
2023-05-25T07:19:02.782Z,78.76
2023-05-25T07:21:32.198Z,78.56
2023-05-25T07:23:58.540Z,78.38
2023-05-25T07:26:24.863Z,78.63
2023-05-25T07:28:51.222Z,78.77
2023-05-25T07:31:17.647Z,79.00
2023-05-25T07:33:44.076Z,79.19
2023-05-25T07:36:10.405Z,79.25
2023-05-25T07:38:36.727Z,79.11
2023-05-25T07:41:03.069Z,79.05
2023-05-25T07:43:29.405Z,78.84
2023-05-25T07:45:55.708Z,78.63
2023-05-25T07:48:22.293Z,78.54
2023-05-25T07:50:48.618Z,78.54
2023-05-25T07:53:15.108Z,78.48
2023-05-25T07:55:41.431Z,78.21
2023-05-25T07:58:07.764Z,78.13
2023-05-25T08:00:34.124Z,77.33
2023-05-25T08:03:00.641Z,77.47
2023-05-25T08:05:27.416Z,77.38
2023-05-25T08:07:54.040Z,76.96
2023-05-25T08:10:20.350Z,76.68
2023-05-25T08:12:48.959Z,77.38
2023-05-25T08:15:15.911Z,77.64
2023-05-25T08:17:42.377Z,77.23
2023-05-25T08:20:09.093Z,77.10
2023-05-25T08:22:35.625Z,76.89
2023-05-25T08:25:03.092Z,76.90
2023-05-25T08:27:29.414Z,76.91
2023-05-25T08:29:56.021Z,76.56
2023-05-25T08:33:10.866Z,75.91
2023-05-25T08:35:58.789Z,75.71
2023-05-25T09:18:57.610Z,75.41
2023-05-25T09:21:24.932Z,75.54
2023-05-25T09:23:51.800Z,75.72
2023-05-25T09:26:18.371Z,75.35
2023-05-25T09:28:45.396Z,75.21
2023-05-25T09:31:11.881Z,74.47
2023-05-25T09:37:12.487Z,74.73
2023-05-25T09:39:46.399Z,75.16
2023-05-25T09:57:56.557Z,74.88
2023-05-25T10:00:23.398Z,74.46
2023-05-25T10:02:50.275Z,74.30
2023-05-25T10:05:16.658Z,74.29
2023-05-25T10:07:46.340Z,74.27
2023-05-25T10:10:13.620Z,74.62
2023-05-25T10:12:40.579Z,73.94
2023-05-25T10:15:08.282Z,74.00
2023-05-25T10:17:35.336Z,74.34
2023-05-25T10:20:04.103Z,73.65
2023-05-25T10:22:33.575Z,73.60
2023-05-25T10:25:07.704Z,73.74
2023-05-25T10:27:38.275Z,73.82
2023-05-25T10:30:04.979Z,73.29
2023-05-25T10:32:31.907Z,73.01
2023-05-25T10:34:58.460Z,73.05
2023-05-25T10:37:25.916Z,73.14
2023-05-25T10:39:53.268Z,72.83
2023-05-25T10:42:19.965Z,72.96
2023-05-25T10:44:46.472Z,73.35
2023-05-25T10:47:14.498Z,72.55
2023-05-25T10:49:51.641Z,73.02
2023-05-25T10:52:18.465Z,71.69
2023-05-25T10:54:46.153Z,71.00
2023-05-25T10:57:17.443Z,72.08
2023-05-25T10:59:47.884Z,71.92
2023-05-25T11:02:55.437Z,71.60
2023-05-25T11:05:26.802Z,71.35
2023-05-25T11:07:59.586Z,70.97
2023-05-25T11:10:49.268Z,71.06
2023-05-25T11:13:33.864Z,70.74
2023-05-25T11:16:39.407Z,69.63
2023-05-25T11:19:13.566Z,69.04
2023-05-25T11:21:40.847Z,68.80
2023-05-25T11:24:11.688Z,69.58
2023-05-25T11:26:51.225Z,67.52
2023-05-25T11:29:19.465Z,67.66
2023-05-25T11:31:51.228Z,67.42
2023-05-25T11:34:18.405Z,69.57
2023-05-25T11:36:44.767Z,69.23
2023-05-25T11:39:20.928Z,67.76
2023-05-25T11:41:51.590Z,68.52
2023-05-25T11:44:25.020Z,68.51
2023-05-25T11:46:51.672Z,67.68
2023-05-25T11:49:20.328Z,68.16
2023-05-25T11:51:46.595Z,68.44
2023-05-25T11:54:28.876Z,69.00
2023-05-25T11:56:56.273Z,69.59
2023-05-25T11:59:24.531Z,68.91
2023-05-25T12:02:03.949Z,68.30
2023-05-25T12:04:31.348Z,68.27
2023-05-25T12:07:04.521Z,67.75
2023-05-25T12:09:41.241Z,68.46
2023-05-25T12:12:14.855Z,67.51
2023-05-25T12:14:53.691Z,66.17
2023-05-25T12:17:24.382Z,66.60
2023-05-25T12:19:51.555Z,68.30
2023-05-25T12:22:18.291Z,68.41
2023-05-25T12:24:44.971Z,68.45
2023-05-25T12:27:17.920Z,68.50
2023-05-25T12:29:47.129Z,67.77
2023-05-25T12:32:13.679Z,67.47
2023-05-25T12:34:40.024Z,67.05
2023-05-25T12:37:16.633Z,64.98
2023-05-25T12:39:43.052Z,65.03
2023-05-25T12:42:13.608Z,66.28
2023-05-25T12:44:40.038Z,67.22
2023-05-25T12:47:13.594Z,66.13
2023-05-25T12:49:41.000Z,67.25
2023-05-25T12:52:07.998Z,66.35
2023-05-25T12:54:44.484Z,66.18
2023-05-25T12:57:11.877Z,67.02
2023-05-25T12:59:39.238Z,66.83
2023-05-25T13:02:05.863Z,66.78
2023-05-25T13:04:33.003Z,66.80
2023-05-25T13:06:59.425Z,67.16
2023-05-25T13:09:26.500Z,67.45
2023-05-25T13:11:53.779Z,67.54
2023-05-25T13:14:20.114Z,67.37
2023-05-25T13:16:47.153Z,67.47
2023-05-25T13:19:13.726Z,67.40
2023-05-25T13:21:40.001Z,67.22
2023-05-25T13:24:06.435Z,67.45
2023-05-25T13:26:32.818Z,67.79
2023-05-25T13:28:59.227Z,68.01
2023-05-25T13:31:26.271Z,67.90
2023-05-25T13:33:53.141Z,67.43
2023-05-25T13:36:22.452Z,67.46
2023-05-25T13:38:57.202Z,67.75
2023-05-25T13:41:24.373Z,68.14
2023-05-25T13:43:50.772Z,68.32
2023-05-25T13:46:30.073Z,68.16
2023-05-25T13:49:27.091Z,68.49
2023-05-25T13:51:54.072Z,69.01
2023-05-25T13:54:21.299Z,69.64
2023-05-25T13:56:47.715Z,69.83
2023-05-25T13:59:14.362Z,69.89
2023-05-25T14:01:43.050Z,69.92
2023-05-25T14:04:09.946Z,70.22
2023-05-25T14:06:36.798Z,69.81
2023-05-25T14:09:03.714Z,69.80
2023-05-25T14:11:30.221Z,69.89
2023-05-25T14:13:58.520Z,70.36
2023-05-25T14:16:24.961Z,70.42
2023-05-25T14:18:51.331Z,70.75
2023-05-25T14:21:17.808Z,70.59
2023-05-25T14:23:44.231Z,70.53
2023-05-25T14:26:10.729Z,70.24
2023-05-25T14:28:37.105Z,70.12
2023-05-25T14:31:04.294Z,69.95
2023-05-25T14:33:30.740Z,69.76
2023-05-25T14:35:57.245Z,69.76
2023-05-25T14:38:23.555Z,69.80
2023-05-25T14:40:49.958Z,69.78
2023-05-25T14:43:16.476Z,70.52
2023-05-25T14:45:43.115Z,70.64
2023-05-25T14:50:41.451Z,70.86
2023-05-25T14:53:07.924Z,71.34
2023-05-25T14:55:34.281Z,71.79
2023-05-25T14:58:00.839Z,71.59
2023-05-25T15:00:27.189Z,70.97
2023-05-25T15:02:53.613Z,71.05
2023-05-25T15:05:20.194Z,71.09
2023-05-25T15:07:46.593Z,71.15
2023-05-25T15:10:13.534Z,71.08
2023-05-25T15:12:39.928Z,71.35
2023-05-25T15:15:06.570Z,71.26
2023-05-25T15:17:32.918Z,71.48
2023-05-25T15:19:59.476Z,71.66
2023-05-25T15:22:26.006Z,71.17
2023-05-25T15:24:52.560Z,70.95
2023-05-25T15:27:19.174Z,70.80
2023-05-25T15:29:45.536Z,71.49
2023-05-25T15:32:12.527Z,72.12
2023-05-25T15:34:39.592Z,72.19
2023-05-25T15:37:06.283Z,72.18
2023-05-25T15:39:32.629Z,71.50
2023-05-25T15:41:59.205Z,71.26
2023-05-25T15:44:25.658Z,71.08
2023-05-25T15:46:52.156Z,70.87
2023-05-25T15:49:18.658Z,70.59
2023-05-25T15:51:45.038Z,70.14
2023-05-25T15:54:14.396Z,70.24
2023-05-25T15:56:41.280Z,70.16
2023-05-25T15:59:07.630Z,69.83
2023-05-25T16:01:34.074Z,69.74
2023-05-25T16:04:00.708Z,70.16
2023-05-25T16:06:27.207Z,70.30
2023-05-25T16:08:53.549Z,70.60
2023-05-25T16:11:20.137Z,70.57
2023-05-25T16:13:46.923Z,70.57
2023-05-25T16:16:13.313Z,70.33
2023-05-25T16:18:39.939Z,69.82
2023-05-25T16:21:06.307Z,69.52
2023-05-25T16:23:32.689Z,67.89
2023-05-25T16:25:59.146Z,67.21
2023-05-25T16:28:25.632Z,67.64
2023-05-25T16:30:52.307Z,67.45
2023-05-25T16:33:18.751Z,67.58
2023-05-25T16:35:45.530Z,67.80
2023-05-25T16:38:12.701Z,67.74
2023-05-25T16:40:39.312Z,68.14
2023-05-25T16:43:05.767Z,68.46
2023-05-25T16:45:32.257Z,68.59
2023-05-25T16:47:59.005Z,68.61
2023-05-25T16:50:25.616Z,69.06
2023-05-25T16:52:51.932Z,69.29
2023-05-25T16:55:18.627Z,69.51
2023-05-25T16:57:45.205Z,69.66
2023-05-25T17:00:12.370Z,69.91
2023-05-25T17:02:38.883Z,70.46
2023-05-25T17:05:05.574Z,70.79
2023-05-25T17:07:32.525Z,71.13
2023-05-25T17:09:59.396Z,71.82
2023-05-25T17:12:26.459Z,72.20
2023-05-25T17:14:53.157Z,72.45
2023-05-25T17:17:19.640Z,72.87
2023-05-25T17:19:46.280Z,72.82
2023-05-25T17:22:13.015Z,73.21
2023-05-25T17:24:39.902Z,73.58
2023-05-25T17:27:06.323Z,73.74
2023-05-25T17:29:32.701Z,74.15
2023-05-25T17:31:59.464Z,74.14
2023-05-25T17:34:26.317Z,74.53
2023-05-25T17:36:52.752Z,74.62
2023-05-25T17:39:20.895Z,74.66
2023-05-25T17:41:47.258Z,74.83
2023-05-25T17:44:13.604Z,75.09
2023-05-25T17:46:40.486Z,75.19
2023-05-25T17:49:07.125Z,75.43
2023-05-25T17:51:33.627Z,74.30
2023-05-25T17:54:00.383Z,75.29
2023-05-25T17:56:27.118Z,75.81
2023-05-25T17:58:53.855Z,76.10
2023-05-25T18:01:20.747Z,76.16
2023-05-25T18:03:48.141Z,76.38
2023-05-25T18:06:14.914Z,76.64
2023-05-25T18:08:41.615Z,76.61
2023-05-25T18:11:08.921Z,76.83
2023-05-25T18:13:35.671Z,77.08
2023-05-25T18:16:02.359Z,77.41
2023-05-25T18:18:29.141Z,77.63
2023-05-25T18:20:55.575Z,77.89
2023-05-25T18:23:22.208Z,77.72
2023-05-25T18:25:48.955Z,77.80
2023-05-25T18:28:15.873Z,78.31
2023-05-25T18:30:42.763Z,78.86
2023-05-25T18:33:09.636Z,78.78
2023-05-25T18:35:37.464Z,78.69
2023-05-25T18:38:04.204Z,78.73
2023-05-25T18:40:31.054Z,78.80
2023-05-25T18:43:00.869Z,78.92
2023-05-25T18:45:30.328Z,78.72
2023-05-25T18:48:05.591Z,78.58
2023-05-25T18:50:33.006Z,78.20
2023-05-25T18:52:59.381Z,78.16
2023-05-25T18:55:26.333Z,78.66
2023-05-25T18:57:53.030Z,78.80
2023-05-25T19:00:19.867Z,78.59
2023-05-25T19:02:49.249Z,78.87
2023-05-25T19:05:16.201Z,79.08
2023-05-25T19:07:50.959Z,79.90
2023-05-25T19:10:25.586Z,80.06
2023-05-25T19:12:52.450Z,80.17
2023-05-25T19:15:18.907Z,80.21
2023-05-25T19:17:46.371Z,81.34
2023-05-25T19:20:13.288Z,81.75
2023-05-25T19:22:39.808Z,78.52
2023-05-25T19:25:06.408Z,79.28
2023-05-25T19:27:32.895Z,79.00
2023-05-25T19:29:59.279Z,78.48
2023-05-25T19:32:26.241Z,78.16
2023-05-25T19:34:53.064Z,78.36
2023-05-25T19:37:20.499Z,78.31
2023-05-25T19:39:47.258Z,78.20
2023-05-25T19:42:13.777Z,77.66
2023-05-25T19:44:40.567Z,77.71
2023-05-25T19:47:07.483Z,76.89
2023-05-25T19:49:34.225Z,77.00
2023-05-25T19:52:00.987Z,77.03
2023-05-25T19:54:27.857Z,77.14
2023-05-25T19:56:54.631Z,77.15
2023-05-25T19:59:22.154Z,77.72
2023-05-25T20:01:48.776Z,77.60
2023-05-25T20:04:15.608Z,77.89
2023-05-25T20:06:43.259Z,77.91
2023-05-25T20:09:09.855Z,78.28
2023-05-25T20:11:36.545Z,78.70
2023-05-25T20:14:03.048Z,79.46
2023-05-25T20:16:30.599Z,79.78
2023-05-25T20:18:57.460Z,79.50
2023-05-25T20:21:24.414Z,79.07
2023-05-25T20:23:51.284Z,79.16
2023-05-25T20:26:17.924Z,79.23
2023-05-25T20:28:45.362Z,79.38
2023-05-25T20:31:11.904Z,79.63
2023-05-25T20:33:39.409Z,79.60
2023-05-25T20:36:05.826Z,79.89
2023-05-25T20:38:32.496Z,79.99
2023-05-25T20:40:58.861Z,80.26
2023-05-25T20:43:25.280Z,80.37
2023-05-25T20:45:52.176Z,80.04
2023-05-25T20:48:18.844Z,80.24
2023-05-25T20:50:45.253Z,80.47
2023-05-25T20:53:12.501Z,80.07
2023-05-25T20:55:38.830Z,79.69
2023-05-25T20:58:05.153Z,79.41
2023-05-25T21:00:31.683Z,79.75
2023-05-25T21:02:58.161Z,79.77
2023-05-25T21:05:24.728Z,79.51
2023-05-25T21:07:51.338Z,79.41
2023-05-25T21:10:17.747Z,79.38
2023-05-25T21:12:44.167Z,78.99
2023-05-25T21:15:10.559Z,78.42
2023-05-25T21:17:36.916Z,78.90
2023-05-25T21:20:03.464Z,78.65
2023-05-25T21:22:29.938Z,79.04
2023-05-25T21:24:56.440Z,78.88
2023-05-25T21:27:22.812Z,78.99
2023-05-25T21:29:49.299Z,79.69
2023-05-25T21:32:15.579Z,79.15
2023-05-25T21:34:41.877Z,79.56
2023-05-25T21:37:08.403Z,79.72
2023-05-25T21:39:34.784Z,79.73
2023-05-25T21:42:01.156Z,80.13
2023-05-25T21:44:27.578Z,80.38
2023-05-25T21:46:53.896Z,80.52
2023-05-25T21:49:20.239Z,80.83
2023-05-25T21:51:46.571Z,81.07
2023-05-25T21:54:12.919Z,81.13
2023-05-25T21:56:39.401Z,80.72
2023-05-25T21:59:05.739Z,80.02
2023-05-25T22:01:32.146Z,79.20
2023-05-25T22:03:58.538Z,79.09
2023-05-25T22:06:24.978Z,78.84
2023-05-25T22:08:51.258Z,78.90
2023-05-25T22:11:17.612Z,78.86
2023-05-25T22:13:43.888Z,78.87
2023-05-25T22:16:10.165Z,78.79
2023-05-25T22:18:38.417Z,78.54
2023-05-25T22:21:05.207Z,78.45
2023-05-25T22:23:31.506Z,78.62
2023-05-25T22:25:57.847Z,78.74
2023-05-25T22:28:24.327Z,79.35
2023-05-25T22:30:50.756Z,80.11
2023-05-25T22:33:17.169Z,80.73
2023-05-25T22:35:43.731Z,81.02
2023-05-25T22:38:10.246Z,80.30
2023-05-25T22:40:37.753Z,79.31
2023-05-25T22:43:05.923Z,79.07
2023-05-25T22:45:32.277Z,79.14
2023-05-25T22:47:58.590Z,78.76
2023-05-25T22:50:24.987Z,78.70
2023-05-25T22:52:51.294Z,78.74
2023-05-25T22:55:17.599Z,78.75
2023-05-25T22:57:44.098Z,78.85
2023-05-25T23:00:10.646Z,78.98
2023-05-25T23:02:37.081Z,79.58
2023-05-25T23:05:04.147Z,79.65
2023-05-25T23:07:30.463Z,79.75
2023-05-25T23:09:56.980Z,79.14
2023-05-25T23:12:23.279Z,78.90
2023-05-25T23:14:49.545Z,78.85
2023-05-25T23:17:15.950Z,78.85
2023-05-25T23:19:42.243Z,78.83
2023-05-25T23:22:08.723Z,78.81
2023-05-25T23:24:34.992Z,78.89
2023-05-25T23:27:01.377Z,78.87
2023-05-25T23:29:27.963Z,78.92
2023-05-25T23:31:54.359Z,78.95
2023-05-25T23:34:20.861Z,78.99
2023-05-25T23:36:47.186Z,78.96
2023-05-25T23:39:13.603Z,78.97
2023-05-25T23:41:40.010Z,79.00
2023-05-25T23:44:06.409Z,79.00
2023-05-25T23:46:32.894Z,79.04
2023-05-25T23:48:59.541Z,79.02
2023-05-25T23:51:25.872Z,79.13
2023-05-25T23:53:52.184Z,79.32
2023-05-25T23:56:18.478Z,79.22
2023-05-25T23:58:44.783Z,79.52
